Impac Mortgage Holdings Inc (IMH) Latest Bloomsberg Price


Mffais Ranking #346 Overall / #5 Industry
Industry: Mortgage Finance

Number of Companies: 32 (Ranking #2507 Overall/#41 Industry)
Inflow: $ 24,267 (K) (Ranking #1662 Overall/#19 Industry)
Outflow: $ -2,686 (K)
Mffais Flow: $ 21,581 (K) (Ranking #346 Overall/#5 Industry)


Owner CPOR Shares Action Qty Chg Invested (K) Total Current Value (K)
Philadelphia Financial Management Of San Francisco Llc 2016-09-30 650,000 New Holding 650,000 $ 11,466 $ 11,466
Talkot Capital Llc 2016-09-30 275,000 New Holding 275,000 $ 4,851 $ 4,851
Ejf Capital Llc 2016-09-30 150,655 New Holding 150,655 $ 2,657 $ 2,657
Jane Street Group Llc 2016-09-30 98,701 New Holding 98,701 $ 1,741 $ 1,741
Monashee Investment Management Llc 2016-09-30 60,000 New Holding 60,000 $ 1,058 $ 1,058
Alpine Woods Capital Investors Llc 2016-09-30 50,000 New Holding 50,000 $ 882 $ 882
Chicago Equity Partners Llc 2016-09-30 31,640 New Holding 31,640 $ 558 $ 558
Monarch Partners Asset Management Llc 2016-09-30 24,280 New Holding 24,280 $ 428 $ 428
Dimensional Fund Advisors Lp 2016-09-30 12,069 New Holding 12,069 $ 212 $ 212
Clarivest Asset Management Llc 2016-09-30 5,475 New Holding 5,475 $ 96 $ 96
Cutler Group Lp 2016-09-30 20,066 Added More 5,466 $ 96 $ 353
California State Teachers Retirement System 2016-09-30 21,112 Added More 4,500 $ 79 $ 372
Tower Research Capital Llc Trc 2016-09-30 4,057 Added More 3,888 $ 68 $ 71
Creative Planning 2016-09-30 3,559 Added More 1,300 $ 22 $ 62
Simplex Trading Llc 2016-09-30 1,524 Added More 1,273 $ 22 $ 26
Blackrock Inc 2016-09-30 3,228 Added More 1,150 $ 20 $ 56
Northern Trust Corp 2016-09-30 80,080 Added More 311 $ 5 $ 1,412
American International Group Inc 2016-09-30 4,568 Added More 7 $ 0 $ 80
Teachers Advisors Inc 2016-09-30 12,626 No Change 0 $ 0 $ 222
New York State Common Retirement Fund 2016-09-30 7,900 No Change 0 $ 0 $ 139
Zweig-Dimenna Associates Llc 2016-09-30 27,930 No Change 0 $ 0 $ 492
Nationwide Fund Advisors 2016-09-30 5,601 No Change 0 $ 0 $ 98
Ifp Advisors Inc 2016-09-30 1,000 No Change 0 $ 0 $ 17
Tudor Investment Corp Et Al 2016-09-30 15,899 No Change 0 $ 0 $ 280
Blackrock Investment Management Llc 2016-09-30 35,677 Sold Some -114 $ -2 $ 629
Qs Investors Llc 2016-09-30 800 Sold Some -200 $ -3 $ 14
Salzhauer Michael 2016-09-30 108,958 Sold Some -214 $ -3 $ 1,922
Acrospire Investment Management Llc 2016-09-30 402 Sold Some -1,114 $ -19 $ 7
Pnc Financial Services Group Inc 2016-09-30 0 Sold All -1,259 $ -22 $ 0
Cornerstone Capital Management Holdings Llc 2016-09-30 0 Sold All -3,032 $ -53 $ 0
Bridgeway Capital Management Inc 2016-09-30 184,400 Sold Some -54,000 $ -952 $ 3,252
Sg Americas Securities Llc 2016-09-30 0 Sold All -92,355 $ -1,629 $ 0